Time;durP1;ratioP1;P1;durP2;ratioP2;P2;SDS_P1;SDS_P2;PMS_P1;PMS_P2;Temp;Humidity;BMP_temperature;BMP_pressure;BME280_temperature;BME280_humidity;BME280_pressure;Samples;Min_cycle;Max_cycle;Signal;HPM_P1;HPM_P2
2022/12/16 00:01:10;;;;;;;24.38;16.83;;;1.40;99.90;;;;;;5054651;28;20080;-69
2022/12/16 00:03:37;;;;;;;28.13;18.55;;;1.20;99.90;;;;;;5054513;28;20048;-68
2022/12/16 00:06:04;;;;;;;27.70;17.75;;;0.20;99.90;;;;;;5054581;28;20143;-68
2022/12/16 00:08:35;;;;;;;27.38;17.17;;;0.60;99.90;;;;;;5054518;28;20040;-68
2022/12/16 00:11:01;;;;;;;26.13;16.95;;;0.30;99.90;;;;;;5054794;28;20041;-68
2022/12/16 00:13:29;;;;;;;26.98;17.60;;;0.90;99.90;;;;;;5053490;28;20073;-68
2022/12/16 00:15:55;;;;;;;25.15;16.13;;;0.20;99.90;;;;;;5054114;28;20044;-68
2022/12/16 00:18:21;;;;;;;26.48;16.20;;;0.30;99.90;;;;;;5054346;28;20041;-68
2022/12/16 00:20:49;;;;;;;29.52;18.10;;;0.40;99.90;;;;;;5053678;28;20464;-68
2022/12/16 00:23:15;;;;;;;25.60;16.50;;;0.40;99.90;;;;;;5054326;28;20044;-68
2022/12/16 00:25:45;;;;;;;25.40;16.70;;;0.90;99.90;;;;;;5020231;28;20507;-68
2022/12/16 00:28:13;;;;;;;26.65;17.02;;;0.60;99.90;;;;;;5053205;28;20136;-68
2022/12/16 00:30:40;;;;;;;27.77;16.73;;;0.40;99.90;;;;;;5054924;28;20145;-68
2022/12/16 00:33:06;;;;;;;24.27;17.50;;;0.60;99.90;;;;;;5054080;28;20091;-68
2022/12/16 00:35:31;;;;;;;27.15;16.38;;;0.60;99.90;;;;;;5052805;28;20080;-68
2022/12/16 00:37:57;;;;;;;24.60;16.67;;;0.60;99.90;;;;;;5053966;28;20082;-68
2022/12/16 00:40:24;;;;;;;25.77;16.80;;;1.30;99.90;;;;;;5053345;28;20052;-68
2022/12/16 00:42:50;;;;;;;28.02;17.23;;;0.40;99.90;;;;;;5053867;28;20414;-68
2022/12/16 00:45:16;;;;;;;24.55;16.55;;;0.70;99.90;;;;;;5053920;28;20455;-68
2022/12/16 00:47:41;;;;;;;28.05;16.98;;;0.60;99.90;;;;;;5052634;28;20136;-68
2022/12/16 00:50:08;;;;;;;24.20;16.75;;;0.90;99.90;;;;;;5054282;28;20044;-68
2022/12/16 00:52:34;;;;;;;23.85;15.90;;;0.50;99.90;;;;;;5053476;28;20484;-68
2022/12/16 00:54:59;;;;;;;23.92;16.38;;;0.60;99.90;;;;;;5053675;28;20048;-68
2022/12/16 00:57:25;;;;;;;23.92;17.17;;;1.00;99.90;;;;;;5053753;28;20400;-68
2022/12/16 00:59:51;;;;;;;23.67;16.75;;;0.50;99.90;;;;;;5053297;28;20484;-68
2022/12/16 01:02:17;;;;;;;25.20;16.52;;;0.50;99.90;;;;;;5053878;28;20045;-68
2022/12/16 01:04:42;;;;;;;24.67;17.52;;;1.10;99.90;;;;;;5053284;28;20537;-69
2022/12/16 01:07:08;;;;;;;28.95;17.05;;;0.80;99.90;;;;;;5052331;28;20102;-68
2022/12/16 01:09:35;;;;;;;24.73;16.05;;;0.80;99.90;;;;;;5053608;28;20080;-68
2022/12/16 01:12:00;;;;;;;24.45;15.98;;;0.80;99.90;;;;;;5053585;28;20113;-69
2022/12/16 01:14:26;;;;;;;25.63;16.27;;;1.70;99.90;;;;;;5053989;28;20504;-68
2022/12/16 01:16:52;;;;;;;24.25;16.92;;;0.60;99.90;;;;;;5053438;28;20483;-68
2022/12/16 01:19:17;;;;;;;26.50;17.80;;;0.80;99.90;;;;;;5053949;28;20175;-68
2022/12/16 01:21:43;;;;;;;23.23;16.05;;;1.50;99.90;;;;;;5053647;28;20041;-68
2022/12/16 01:24:10;;;;;;;24.23;16.65;;;0.90;99.90;;;;;;5036131;28;20479;-68
2022/12/16 01:26:36;;;;;;;21.77;15.40;;;0.70;99.90;;;;;;5053366;28;20056;-68
2022/12/16 01:29:01;;;;;;;21.85;14.90;;;0.70;99.90;;;;;;5053363;28;20396;-68
2022/12/16 01:31:27;;;;;;;22.90;14.93;;;1.00;99.90;;;;;;5053243;28;20044;-68
2022/12/16 01:33:53;;;;;;;25.15;17.02;;;2.30;99.90;;;;;;5053549;28;20052;-68
2022/12/16 01:36:19;;;;;;;23.55;15.25;;;1.00;99.90;;;;;;5053272;28;20092;-68
2022/12/16 01:38:45;;;;;;;24.58;15.48;;;1.60;99.90;;;;;;5053229;28;20053;-68
2022/12/16 01:41:12;;;;;;;24.77;16.02;;;1.10;99.90;;;;;;5053170;28;20089;-68
2022/12/16 01:43:40;;;;;;;24.25;14.95;;;0.80;99.90;;;;;;5054019;28;20079;-68
2022/12/16 01:46:11;;;;;;;23.35;16.35;;;0.90;99.90;;;;;;5052629;28;20104;-68
2022/12/16 01:48:49;;;;;;;22.67;15.43;;;0.70;99.90;;;;;;5053766;28;20480;-68
2022/12/16 01:51:30;;;;;;;23.17;14.50;;;0.90;99.90;;;;;;5053156;28;20091;-68
2022/12/16 01:54:03;;;;;;;26.23;15.20;;;0.90;99.90;;;;;;5053173;28;20084;-68
2022/12/16 01:56:31;;;;;;;19.60;14.25;;;1.70;99.90;;;;;;5052461;28;20127;-68
2022/12/16 01:58:59;;;;;;;21.77;14.93;;;0.90;99.90;;;;;;5052493;28;20384;-68
2022/12/16 02:01:25;;;;;;;22.95;15.98;;;1.10;99.90;;;;;;5053028;28;20041;-68
2022/12/16 02:03:53;;;;;;;24.80;16.67;;;1.00;99.90;;;;;;5053570;28;20372;-68
2022/12/16 02:06:19;;;;;;;19.58;14.88;;;1.00;99.90;;;;;;5052963;28;20060;-68
2022/12/16 02:08:45;;;;;;;21.13;14.23;;;1.10;99.90;;;;;;5053274;28;20107;-68
2022/12/16 02:11:10;;;;;;;21.15;15.13;;;0.90;99.90;;;;;;5034902;28;20396;-68
2022/12/16 02:14:04;;;;;;;26.60;15.38;;;1.40;99.90;;;;;;5052553;28;20084;-68
2022/12/16 02:16:44;;;;;;;21.20;14.80;;;0.80;99.90;;;;;;5053230;28;20049;-68
2022/12/16 02:19:28;;;;;;;23.35;15.82;;;1.30;99.90;;;;;;5053434;28;20091;-68
2022/12/16 02:22:22;;;;;;;20.77;15.27;;;1.40;99.90;;;;;;5053603;28;20444;-68
2022/12/16 02:24:51;;;;;;;;;;;0.90;99.90;;;;;;5053824;28;20423;-68
2022/12/16 02:27:28;;;;;;;25.25;16.02;;;0.90;99.90;;;;;;5055974;28;19928;-68
2022/12/16 02:30:13;;;;;;;25.02;16.05;;;0.70;99.90;;;;;;5056165;28;20496;-68
2022/12/16 02:32:56;;;;;;;21.98;14.68;;;0.80;99.90;;;;;;5056085;28;20198;-68
2022/12/16 02:35:41;;;;;;;24.70;15.50;;;0.90;99.90;;;;;;5055296;28;20048;-68
2022/12/16 02:38:09;;;;;;;21.52;15.07;;;1.00;99.90;;;;;;5056436;28;20052;-68
2022/12/16 02:40:42;;;;;;;22.75;14.63;;;0.90;99.90;;;;;;5056248;28;20049;-68
2022/12/16 02:44:03;;;;;;;22.65;14.75;;;1.00;99.90;;;;;;5055529;28;20087;-68
2022/12/16 02:46:32;;;;;;;20.85;14.30;;;0.90;99.90;;;;;;4997397;28;20497;-69
2022/12/16 02:49:12;;;;;;;23.20;15.40;;;1.40;99.90;;;;;;5047184;28;20057;-68
2022/12/16 02:51:38;;;;;;;19.38;14.50;;;1.10;99.90;;;;;;5038576;28;20093;-68
2022/12/16 02:54:07;;;;;;;21.23;14.32;;;1.90;99.90;;;;;;5055334;28;20049;-68
2022/12/16 02:56:51;;;;;;;23.52;15.18;;;1.00;99.90;;;;;;5055963;28;20041;-68
2022/12/16 02:59:39;;;;;;;19.65;13.63;;;1.10;99.90;;;;;;5056229;28;20045;-68
2022/12/16 03:02:14;;;;;;;21.00;13.88;;;1.30;99.90;;;;;;5055874;28;20094;-68
2022/12/16 03:04:52;;;;;;;20.85;12.85;;;1.20;99.90;;;;;;5054500;28;20052;-68
2022/12/16 03:07:20;;;;;;;19.00;12.50;;;1.10;99.90;;;;;;5055832;28;20049;-68
2022/12/16 03:09:49;;;;;;;19.73;13.00;;;0.80;99.90;;;;;;5055703;28;20072;-68
2022/12/16 03:12:18;;;;;;;20.65;12.95;;;1.30;99.90;;;;;;5055520;28;20045;-68
2022/12/16 03:14:47;;;;;;;17.95;12.02;;;1.70;99.90;;;;;;5038267;28;20052;-68
2022/12/16 03:17:15;;;;;;;22.98;15.40;;;1.20;99.90;;;;;;5055275;28;20045;-68
2022/12/16 03:19:45;;;;;;;24.73;16.80;;;1.30;99.90;;;;;;5037965;28;20056;-68
2022/12/16 03:22:21;;;;;;;22.85;15.65;;;1.40;99.90;;;;;;5054513;28;20131;-68
2022/12/16 03:24:48;;;;;;;23.45;15.30;;;1.40;99.90;;;;;;5055508;28;20045;-68
2022/12/16 03:27:19;;;;;;;21.83;14.77;;;1.60;99.90;;;;;;5054395;28;20052;-68
2022/12/16 03:30:08;;;;;;;20.83;15.52;;;1.10;99.90;;;;;;5055335;28;20427;-68
2022/12/16 03:32:54;;;;;;;22.40;14.38;;;1.00;99.90;;;;;;5056096;28;20437;-68
2022/12/16 03:35:22;;;;;;;25.00;15.55;;;1.00;99.90;;;;;;5056068;28;20052;-68
2022/12/16 03:37:54;;;;;;;23.90;15.02;;;2.00;99.90;;;;;;5054660;28;20091;-68
2022/12/16 03:40:21;;;;;;;24.42;15.07;;;1.20;99.90;;;;;;5055650;28;20052;-68
2022/12/16 03:42:48;;;;;;;26.63;16.42;;;1.20;99.90;;;;;;5053801;28;20041;-68
2022/12/16 03:45:18;;;;;;;22.35;15.85;;;1.00;99.90;;;;;;5055336;28;20095;-68
2022/12/16 03:47:49;;;;;;;23.27;16.60;;;2.20;99.90;;;;;;5055515;28;20037;-68
2022/12/16 03:50:18;;;;;;;21.58;15.93;;;1.20;99.90;;;;;;5055758;28;20154;-68
2022/12/16 03:52:44;;;;;;;25.70;17.48;;;1.80;99.90;;;;;;5055328;28;20456;-68
2022/12/16 03:55:09;;;;;;;27.38;16.80;;;0.90;99.90;;;;;;5020828;28;20076;-68
2022/12/16 03:57:35;;;;;;;25.75;16.85;;;0.80;99.90;;;;;;5054760;28;20485;-68
2022/12/16 04:00:01;;;;;;;26.95;17.23;;;1.30;99.90;;;;;;5037140;28;20473;-68
2022/12/16 04:02:26;;;;;;;24.50;16.70;;;1.90;99.90;;;;;;5054384;28;20080;-69
2022/12/16 04:04:52;;;;;;;24.38;17.00;;;1.10;99.90;;;;;;5053457;28;20049;-68
2022/12/16 04:07:21;;;;;;;22.75;15.90;;;1.00;99.90;;;;;;5054921;28;20433;-69
2022/12/16 04:09:50;;;;;;;28.90;16.63;;;1.10;99.90;;;;;;5036664;28;20049;-68
2022/12/16 04:27:23;;;;;;;23.15;15.90;;;0.80;99.90;;;;;;5054472;28;20469;-69
2022/12/16 04:29:18;;;;;;;25.85;16.13;;;0.90;99.90;;;;;;5053973;28;20144;-68
2022/12/16 04:31:44;;;;;;;25.15;16.20;;;1.00;99.90;;;;;;5054585;28;20172;-68
2022/12/16 04:34:24;;;;;;;27.00;16.30;;;1.10;99.90;;;;;;5054129;28;20048;-68
